Monroe County Airport
KBMG : now visible

Aeroporto :











RITROVATECI SU...

 
LOGIN :

Iscrizione | Disclaimer

   EN    FR    IT 

 









Sommario :    VFR   VFR Marginale   IFR   IFR Intensivo   IFR Molto Intensivo
Visibilità : 
Base nubi : 
>= 8 km
>= 3000ft
5 / 8 km
1000 / 3000 ft
1500m / 5 km
500 / 1000 ft
800 / 1500m
200 / 500 ft
< 800m
< 200 ft
Simboli :   Temporali  Nebbia  Neve Forte  Precipitazioni Forti  Vento > 20 kt






- Altitudine del aeroporto : 846 ft
- Codice IATA : BMG


KBMG - Monroe County

ULTIMO METAR :
  • 061553Z 18005KT 10SM CLR 31/20 A3005 RMK AO2 SLP165 T03110200

METARs OBSOLETI :
  • 061453Z VRB05KT 10SM CLR 29/21 A3004 RMK AO2 SLP164 T02940206 53010
  • 061353Z 18004KT 10SM CLR 28/21 A3003 RMK AO2 SLP160 T02780206

TAF KBMG
Valido dal 06 a 12 ore il 07 a 12 ore UTC


061120Z 0612/0712 00000KT P6SM FEW250
FM061800 VRB03KT P6SM VCTS BKN050CB
FM070100 00000KT P6SM SCT060 AMD LTD TO CLD VIS AND WIND TIL 061300
FIR KZID / America del Nord



MetMap, La meteo Aeronautica in un colpo d'occhio ! - Copyright ORBIFLY Dicembre 2007 - Disclaimer

ORBIFLY MET'MAP TEAM :

Programmazione e sviluppo : Alexandra Zaïnal
Concezione : Baudouin d'Aumeries
Aiuto per la programmazione : Marc-Olivier Méhu
Supporto tecnico e logistico : Manuel Goepfert
Aiuto per la traduzione : Arnaldo La Scala

Contatto : metmap@orbifly.com




FONTI E CREDITI :

   NOAA       Earth
Advisory